sensor_id;sensor_type;location;lat;lon;timestamp;temperature;humidity
21906;DHT22;11117;48.644;9.006;2022-08-04T00:00:43;22.30;86.90
21906;DHT22;11117;48.644;9.006;2022-08-04T00:03:15;22.30;86.10
21906;DHT22;11117;48.644;9.006;2022-08-04T00:08:43;22.20;87.00
21906;DHT22;11117;48.644;9.006;2022-08-04T00:11:10;22.20;87.60
21906;DHT22;11117;48.644;9.006;2022-08-04T00:13:42;22.10;87.50
21906;DHT22;11117;48.644;9.006;2022-08-04T00:16:10;22.10;87.00
21906;DHT22;11117;48.644;9.006;2022-08-04T00:18:54;22.00;88.00
21906;DHT22;11117;48.644;9.006;2022-08-04T00:21:22;22.00;88.70
21906;DHT22;11117;48.644;9.006;2022-08-04T00:23:49;21.90;88.20
21906;DHT22;11117;48.644;9.006;2022-08-04T00:26:16;21.90;88.70
21906;DHT22;11117;48.644;9.006;2022-08-04T00:28:42;21.90;88.00
21906;DHT22;11117;48.644;9.006;2022-08-04T00:31:09;21.90;87.50
21906;DHT22;11117;48.644;9.006;2022-08-04T00:33:37;21.80;87.80
21906;DHT22;11117;48.644;9.006;2022-08-04T00:36:03;21.80;87.50
21906;DHT22;11117;48.644;9.006;2022-08-04T00:38:29;21.80;88.20
21906;DHT22;11117;48.644;9.006;2022-08-04T00:54:56;21.60;88.30
21906;DHT22;11117;48.644;9.006;2022-08-04T00:57:30;21.60;88.40
21906;DHT22;11117;48.644;9.006;2022-08-04T01:00:12;21.60;90.00
21906;DHT22;11117;48.644;9.006;2022-08-04T01:08:27;21.50;87.70
21906;DHT22;11117;48.644;9.006;2022-08-04T01:11:03;21.50;87.80
21906;DHT22;11117;48.644;9.006;2022-08-04T01:16:17;21.50;87.60
21906;DHT22;11117;48.644;9.006;2022-08-04T01:19:02;21.50;87.70
21906;DHT22;11117;48.644;9.006;2022-08-04T01:24:43;21.50;86.90
21906;DHT22;11117;48.644;9.006;2022-08-04T01:29:58;21.50;86.80
21906;DHT22;11117;48.644;9.006;2022-08-04T01:32:31;21.50;87.10
21906;DHT22;11117;48.644;9.006;2022-08-04T01:35:05;21.50;87.20
21906;DHT22;11117;48.644;9.006;2022-08-04T01:40:13;21.50;87.20
21906;DHT22;11117;48.644;9.006;2022-08-04T01:42:40;21.50;87.30
21906;DHT22;11117;48.644;9.006;2022-08-04T01:45:09;21.40;87.60
21906;DHT22;11117;48.644;9.006;2022-08-04T01:47:37;21.30;90.70
21906;DHT22;11117;48.644;9.006;2022-08-04T01:50:07;21.30;91.40
21906;DHT22;11117;48.644;9.006;2022-08-04T01:52:35;21.20;91.80
21906;DHT22;11117;48.644;9.006;2022-08-04T01:55:03;21.10;92.00
21906;DHT22;11117;48.644;9.006;2022-08-04T01:57:32;21.00;92.20
21906;DHT22;11117;48.644;9.006;2022-08-04T01:59:58;20.90;92.40
21906;DHT22;11117;48.644;9.006;2022-08-04T02:02:24;20.80;92.20
21906;DHT22;11117;48.644;9.006;2022-08-04T02:04:50;20.80;92.50
21906;DHT22;11117;48.644;9.006;2022-08-04T02:10:07;20.70;93.10
21906;DHT22;11117;48.644;9.006;2022-08-04T02:12:51;20.60;93.40
21906;DHT22;11117;48.644;9.006;2022-08-04T02:15:53;20.50;93.20
21906;DHT22;11117;48.644;9.006;2022-08-04T02:18:27;20.50;92.80
21906;DHT22;11117;48.644;9.006;2022-08-04T02:20:57;20.40;92.70
21906;DHT22;11117;48.644;9.006;2022-08-04T02:23:43;20.40;92.80
21906;DHT22;11117;48.644;9.006;2022-08-04T02:26:17;20.40;92.70
21906;DHT22;11117;48.644;9.006;2022-08-04T02:31:31;20.40;93.20
21906;DHT22;11117;48.644;9.006;2022-08-04T02:36:39;20.20;93.50
21906;DHT22;11117;48.644;9.006;2022-08-04T02:39:09;20.10;94.10
21906;DHT22;11117;48.644;9.006;2022-08-04T02:41:36;20.10;94.30
21906;DHT22;11117;48.644;9.006;2022-08-04T02:44:06;20.00;94.40
21906;DHT22;11117;48.644;9.006;2022-08-04T02:46:33;20.00;94.60
21906;DHT22;11117;48.644;9.006;2022-08-04T02:49:02;19.90;94.60
21906;DHT22;11117;48.644;9.006;2022-08-04T02:51:31;19.90;95.00
21906;DHT22;11117;48.644;9.006;2022-08-04T02:53:58;19.80;95.40
21906;DHT22;11117;48.644;9.006;2022-08-04T02:56:28;19.80;95.80
21906;DHT22;11117;48.644;9.006;2022-08-04T02:59:05;19.80;96.20
21906;DHT22;11117;48.644;9.006;2022-08-04T03:01:33;19.70;96.20
21906;DHT22;11117;48.644;9.006;2022-08-04T03:47:50;19.00;99.90
21906;DHT22;11117;48.644;9.006;2022-08-04T04:10:07;19.00;99.90
21906;DHT22;11117;48.644;9.006;2022-08-04T04:18:29;19.10;99.80
21906;DHT22;11117;48.644;9.006;2022-08-04T04:27:21;19.10;99.90
21906;DHT22;11117;48.644;9.006;2022-08-04T04:38:30;19.20;99.20
21906;DHT22;11117;48.644;9.006;2022-08-04T04:52:10;19.60;99.10
21906;DHT22;11117;48.644;9.006;2022-08-04T04:54:40;19.80;98.20
21906;DHT22;11117;48.644;9.006;2022-08-04T04:57:17;20.00;97.60
21906;DHT22;11117;48.644;9.006;2022-08-04T04:59:51;20.30;96.80
21906;DHT22;11117;48.644;9.006;2022-08-04T05:11:11;21.50;93.90
21906;DHT22;11117;48.644;9.006;2022-08-04T05:14:00;21.90;93.00
21906;DHT22;11117;48.644;9.006;2022-08-04T05:16:48;22.20;92.50
21906;DHT22;11117;48.644;9.006;2022-08-04T05:22:03;22.80;91.40
21906;DHT22;11117;48.644;9.006;2022-08-04T05:24:33;23.10;91.00
21906;DHT22;11117;48.644;9.006;2022-08-04T05:27:10;23.40;90.80
21906;DHT22;11117;48.644;9.006;2022-08-04T05:29:45;23.60;90.30
21906;DHT22;11117;48.644;9.006;2022-08-04T05:32:15;23.90;90.30
21906;DHT22;11117;48.644;9.006;2022-08-04T05:34:48;24.30;90.30
21906;DHT22;11117;48.644;9.006;2022-08-04T05:37:18;24.70;90.80
21906;DHT22;11117;48.644;9.006;2022-08-04T05:39:52;24.90;90.00
21906;DHT22;11117;48.644;9.006;2022-08-04T05:42:20;25.20;91.60
21906;DHT22;11117;48.644;9.006;2022-08-04T05:44:47;25.40;86.80
21906;DHT22;11117;48.644;9.006;2022-08-04T05:47:13;25.70;85.30
21906;DHT22;11117;48.644;9.006;2022-08-04T05:49:40;25.80;83.80
21906;DHT22;11117;48.644;9.006;2022-08-04T05:52:07;26.00;83.00
21906;DHT22;11117;48.644;9.006;2022-08-04T05:54:34;26.10;83.60
21906;DHT22;11117;48.644;9.006;2022-08-04T05:57:05;26.20;83.50
21906;DHT22;11117;48.644;9.006;2022-08-04T05:59:35;26.30;83.90
21906;DHT22;11117;48.644;9.006;2022-08-04T06:02:02;26.30;82.70
21906;DHT22;11117;48.644;9.006;2022-08-04T06:04:37;26.30;82.10
21906;DHT22;11117;48.644;9.006;2022-08-04T06:07:04;26.40;82.90
21906;DHT22;11117;48.644;9.006;2022-08-04T06:09:30;26.50;81.70
21906;DHT22;11117;48.644;9.006;2022-08-04T06:12:00;26.60;81.60
21906;DHT22;11117;48.644;9.006;2022-08-04T06:14:39;26.60;82.70
21906;DHT22;11117;48.644;9.006;2022-08-04T06:17:07;26.80;83.70
21906;DHT22;11117;48.644;9.006;2022-08-04T06:19:34;26.90;84.10
21906;DHT22;11117;48.644;9.006;2022-08-04T06:22:03;27.00;84.50
21906;DHT22;11117;48.644;9.006;2022-08-04T06:24:30;27.10;81.70
21906;DHT22;11117;48.644;9.006;2022-08-04T06:26:56;27.20;80.60
21906;DHT22;11117;48.644;9.006;2022-08-04T06:29:24;27.10;79.70
21906;DHT22;11117;48.644;9.006;2022-08-04T06:31:50;27.20;80.10
21906;DHT22;11117;48.644;9.006;2022-08-04T06:34:17;27.20;80.40
21906;DHT22;11117;48.644;9.006;2022-08-04T06:36:43;27.20;80.00
21906;DHT22;11117;48.644;9.006;2022-08-04T06:39:09;27.20;79.30
21906;DHT22;11117;48.644;9.006;2022-08-04T06:41:36;27.20;79.60
21906;DHT22;11117;48.644;9.006;2022-08-04T06:44:06;27.20;79.00
21906;DHT22;11117;48.644;9.006;2022-08-04T06:46:34;27.30;79.60
21906;DHT22;11117;48.644;9.006;2022-08-04T06:49:01;27.30;79.20
21906;DHT22;11117;48.644;9.006;2022-08-04T06:51:27;27.30;79.60
21906;DHT22;11117;48.644;9.006;2022-08-04T06:53:54;27.30;80.00
21906;DHT22;11117;48.644;9.006;2022-08-04T06:56:21;27.20;78.90
21906;DHT22;11117;48.644;9.006;2022-08-04T06:58:48;27.30;78.20
21906;DHT22;11117;48.644;9.006;2022-08-04T07:01:16;27.30;78.10
21906;DHT22;11117;48.644;9.006;2022-08-04T07:03:42;27.30;78.20
21906;DHT22;11117;48.644;9.006;2022-08-04T07:06:08;27.30;78.10
21906;DHT22;11117;48.644;9.006;2022-08-04T07:08:34;27.40;77.90
21906;DHT22;11117;48.644;9.006;2022-08-04T07:11:00;27.40;77.20
21906;DHT22;11117;48.644;9.006;2022-08-04T07:13:26;27.40;76.70
21906;DHT22;11117;48.644;9.006;2022-08-04T07:15:53;27.40;77.30
21906;DHT22;11117;48.644;9.006;2022-08-04T07:18:19;27.40;76.10
21906;DHT22;11117;48.644;9.006;2022-08-04T07:20:46;27.50;77.00
21906;DHT22;11117;48.644;9.006;2022-08-04T07:23:13;27.50;76.90
21906;DHT22;11117;48.644;9.006;2022-08-04T07:25:39;27.50;76.20
21906;DHT22;11117;48.644;9.006;2022-08-04T07:28:06;27.60;76.40
21906;DHT22;11117;48.644;9.006;2022-08-04T07:30:32;27.70;76.30
21906;DHT22;11117;48.644;9.006;2022-08-04T07:32:59;27.70;76.00
21906;DHT22;11117;48.644;9.006;2022-08-04T07:35:27;27.80;76.70
21906;DHT22;11117;48.644;9.006;2022-08-04T07:37:53;27.90;75.80
21906;DHT22;11117;48.644;9.006;2022-08-04T07:40:18;27.90;75.20
21906;DHT22;11117;48.644;9.006;2022-08-04T07:42:44;28.00;75.30
21906;DHT22;11117;48.644;9.006;2022-08-04T07:45:10;28.10;75.90
21906;DHT22;11117;48.644;9.006;2022-08-04T07:47:36;28.10;76.90
21906;DHT22;11117;48.644;9.006;2022-08-04T07:50:02;28.20;75.90
21906;DHT22;11117;48.644;9.006;2022-08-04T07:52:28;28.30;75.80
21906;DHT22;11117;48.644;9.006;2022-08-04T07:54:54;28.40;76.20
21906;DHT22;11117;48.644;9.006;2022-08-04T07:57:20;28.50;74.60
21906;DHT22;11117;48.644;9.006;2022-08-04T07:59:46;28.60;74.60
21906;DHT22;11117;48.644;9.006;2022-08-04T08:02:13;28.60;74.60
21906;DHT22;11117;48.644;9.006;2022-08-04T08:04:39;28.70;75.60
21906;DHT22;11117;48.644;9.006;2022-08-04T08:07:05;28.90;74.30
21906;DHT22;11117;48.644;9.006;2022-08-04T08:09:33;28.90;73.20
21906;DHT22;11117;48.644;9.006;2022-08-04T08:11:58;29.00;72.90
21906;DHT22;11117;48.644;9.006;2022-08-04T08:14:26;29.10;73.30
21906;DHT22;11117;48.644;9.006;2022-08-04T08:16:52;29.20;73.10
21906;DHT22;11117;48.644;9.006;2022-08-04T08:19:19;29.30;73.70
21906;DHT22;11117;48.644;9.006;2022-08-04T08:21:48;29.40;72.50
21906;DHT22;11117;48.644;9.006;2022-08-04T08:24:14;29.50;72.20
21906;DHT22;11117;48.644;9.006;2022-08-04T08:26:40;29.70;70.70
21906;DHT22;11117;48.644;9.006;2022-08-04T08:29:06;29.80;70.50
21906;DHT22;11117;48.644;9.006;2022-08-04T08:31:33;29.80;70.30
21906;DHT22;11117;48.644;9.006;2022-08-04T08:33:59;29.90;70.80
21906;DHT22;11117;48.644;9.006;2022-08-04T08:36:40;30.10;70.30
21906;DHT22;11117;48.644;9.006;2022-08-04T08:58:56;30.80;68.10
21906;DHT22;11117;48.644;9.006;2022-08-04T09:07:12;31.00;67.50
21906;DHT22;11117;48.644;9.006;2022-08-04T09:12:58;31.10;67.30
21906;DHT22;11117;48.644;9.006;2022-08-04T09:18:05;31.40;66.40
21906;DHT22;11117;48.644;9.006;2022-08-04T09:20:55;31.40;66.50
21906;DHT22;11117;48.644;9.006;2022-08-04T09:23:35;31.50;66.30
21906;DHT22;11117;48.644;9.006;2022-08-04T09:26:10;31.60;66.40
21906;DHT22;11117;48.644;9.006;2022-08-04T09:28:52;31.70;66.20
21906;DHT22;11117;48.644;9.006;2022-08-04T09:31:27;31.70;65.50
21906;DHT22;11117;48.644;9.006;2022-08-04T09:34:10;31.70;65.90
21906;DHT22;11117;48.644;9.006;2022-08-04T09:36:50;31.80;66.50
21906;DHT22;11117;48.644;9.006;2022-08-04T09:39:27;31.90;66.40
21906;DHT22;11117;48.644;9.006;2022-08-04T09:42:19;32.00;66.30
21906;DHT22;11117;48.644;9.006;2022-08-04T09:44:57;32.00;64.20
21906;DHT22;11117;48.644;9.006;2022-08-04T09:50:31;32.10;64.80
21906;DHT22;11117;48.644;9.006;2022-08-04T09:55:54;32.20;62.00
21906;DHT22;11117;48.644;9.006;2022-08-04T10:04:30;32.60;62.50
21906;DHT22;11117;48.644;9.006;2022-08-04T10:23:41;33.00;58.10
21906;DHT22;11117;48.644;9.006;2022-08-04T10:26:34;33.10;58.70
21906;DHT22;11117;48.644;9.006;2022-08-04T10:29:21;33.20;57.50
21906;DHT22;11117;48.644;9.006;2022-08-04T10:32:05;33.30;58.20
21906;DHT22;11117;48.644;9.006;2022-08-04T10:34:42;33.30;56.10
21906;DHT22;11117;48.644;9.006;2022-08-04T10:37:31;33.30;56.20
21906;DHT22;11117;48.644;9.006;2022-08-04T10:40:07;33.40;56.40
21906;DHT22;11117;48.644;9.006;2022-08-04T10:42:37;33.40;56.80
21906;DHT22;11117;48.644;9.006;2022-08-04T10:45:17;33.50;56.30
21906;DHT22;11117;48.644;9.006;2022-08-04T10:48:10;33.60;56.80
21906;DHT22;11117;48.644;9.006;2022-08-04T10:50:39;33.60;55.70
21906;DHT22;11117;48.644;9.006;2022-08-04T10:53:12;33.60;55.70
21906;DHT22;11117;48.644;9.006;2022-08-04T10:58:29;33.80;55.80
21906;DHT22;11117;48.644;9.006;2022-08-04T11:00:59;33.90;56.90
21906;DHT22;11117;48.644;9.006;2022-08-04T11:03:36;33.90;55.10
21906;DHT22;11117;48.644;9.006;2022-08-04T11:06:05;34.10;55.30
21906;DHT22;11117;48.644;9.006;2022-08-04T11:08:31;34.20;55.30
21906;DHT22;11117;48.644;9.006;2022-08-04T11:14:11;34.30;55.10
21906;DHT22;11117;48.644;9.006;2022-08-04T11:16:56;34.40;54.80
21906;DHT22;11117;48.644;9.006;2022-08-04T11:20:10;34.30;53.60
21906;DHT22;11117;48.644;9.006;2022-08-04T11:23:10;34.40;55.30
21906;DHT22;11117;48.644;9.006;2022-08-04T11:25:57;34.50;54.30
21906;DHT22;11117;48.644;9.006;2022-08-04T11:28:57;34.50;54.10
21906;DHT22;11117;48.644;9.006;2022-08-04T11:31:53;34.60;54.10
21906;DHT22;11117;48.644;9.006;2022-08-04T11:34:23;34.60;53.30
21906;DHT22;11117;48.644;9.006;2022-08-04T11:37:26;34.70;53.50
21906;DHT22;11117;48.644;9.006;2022-08-04T11:40:18;34.80;52.90
21906;DHT22;11117;48.644;9.006;2022-08-04T11:43:08;34.80;53.50
21906;DHT22;11117;48.644;9.006;2022-08-04T11:45:44;34.60;52.40
21906;DHT22;11117;48.644;9.006;2022-08-04T11:48:31;34.50;52.80
21906;DHT22;11117;48.644;9.006;2022-08-04T11:50:59;34.50;53.00
21906;DHT22;11117;48.644;9.006;2022-08-04T11:53:26;34.60;53.10
21906;DHT22;11117;48.644;9.006;2022-08-04T11:55:57;34.30;52.10
21906;DHT22;11117;48.644;9.006;2022-08-04T11:58:24;34.30;52.50
21906;DHT22;11117;48.644;9.006;2022-08-04T12:01:09;34.40;52.70
21906;DHT22;11117;48.644;9.006;2022-08-04T12:09:27;34.60;53.70
21906;DHT22;11117;48.644;9.006;2022-08-04T12:14:58;34.80;52.60
21906;DHT22;11117;48.644;9.006;2022-08-04T12:17:37;34.60;52.10
21906;DHT22;11117;48.644;9.006;2022-08-04T12:20:06;34.60;52.30
21906;DHT22;11117;48.644;9.006;2022-08-04T12:22:40;34.60;52.10
21906;DHT22;11117;48.644;9.006;2022-08-04T12:25:11;34.60;52.30
21906;DHT22;11117;48.644;9.006;2022-08-04T12:27:47;34.60;52.60
21906;DHT22;11117;48.644;9.006;2022-08-04T12:30:15;34.70;52.90
21906;DHT22;11117;48.644;9.006;2022-08-04T12:32:58;34.80;52.50
21906;DHT22;11117;48.644;9.006;2022-08-04T12:38:08;35.00;53.00
21906;DHT22;11117;48.644;9.006;2022-08-04T12:40:48;35.10;52.50
21906;DHT22;11117;48.644;9.006;2022-08-04T12:46:00;35.00;52.60
21906;DHT22;11117;48.644;9.006;2022-08-04T12:48:27;35.00;52.40
21906;DHT22;11117;48.644;9.006;2022-08-04T12:50:56;34.90;51.70
21906;DHT22;11117;48.644;9.006;2022-08-04T12:53:27;34.90;52.30
21906;DHT22;11117;48.644;9.006;2022-08-04T12:55:55;35.10;52.10
21906;DHT22;11117;48.644;9.006;2022-08-04T12:58:25;34.90;52.30
21906;DHT22;11117;48.644;9.006;2022-08-04T13:01:01;34.90;52.50
21906;DHT22;11117;48.644;9.006;2022-08-04T13:03:29;34.60;51.80
21906;DHT22;11117;48.644;9.006;2022-08-04T13:06:00;34.60;52.20
21906;DHT22;11117;48.644;9.006;2022-08-04T13:08:27;34.80;52.60
21906;DHT22;11117;48.644;9.006;2022-08-04T13:10:56;34.90;51.50
21906;DHT22;11117;48.644;9.006;2022-08-04T13:13:24;35.10;52.10
21906;DHT22;11117;48.644;9.006;2022-08-04T13:15:59;35.00;51.20
21906;DHT22;11117;48.644;9.006;2022-08-04T13:18:27;35.00;52.20
21906;DHT22;11117;48.644;9.006;2022-08-04T13:20:53;35.20;53.30
21906;DHT22;11117;48.644;9.006;2022-08-04T13:23:20;35.20;51.20
21906;DHT22;11117;48.644;9.006;2022-08-04T13:25:49;35.10;51.50
21906;DHT22;11117;48.644;9.006;2022-08-04T13:28:23;35.40;52.40
21906;DHT22;11117;48.644;9.006;2022-08-04T13:31:04;35.50;52.10
21906;DHT22;11117;48.644;9.006;2022-08-04T13:33:35;35.50;51.50
21906;DHT22;11117;48.644;9.006;2022-08-04T13:36:03;35.70;51.90
21906;DHT22;11117;48.644;9.006;2022-08-04T13:38:30;35.60;51.30
21906;DHT22;11117;48.644;9.006;2022-08-04T13:40:59;35.80;51.40
21906;DHT22;11117;48.644;9.006;2022-08-04T13:43:31;35.80;51.20
21906;DHT22;11117;48.644;9.006;2022-08-04T13:46:02;35.70;51.40
21906;DHT22;11117;48.644;9.006;2022-08-04T13:48:37;35.50;50.90
21906;DHT22;11117;48.644;9.006;2022-08-04T13:51:06;35.60;50.80
21906;DHT22;11117;48.644;9.006;2022-08-04T13:53:35;36.00;51.00
21906;DHT22;11117;48.644;9.006;2022-08-04T13:56:05;36.30;51.30
21906;DHT22;11117;48.644;9.006;2022-08-04T13:58:33;36.50;51.30
21906;DHT22;11117;48.644;9.006;2022-08-04T14:01:21;36.60;49.40
21906;DHT22;11117;48.644;9.006;2022-08-04T14:03:51;36.50;49.80
21906;DHT22;11117;48.644;9.006;2022-08-04T14:06:35;36.50;49.60
21906;DHT22;11117;48.644;9.006;2022-08-04T14:09:24;36.40;49.10
21906;DHT22;11117;48.644;9.006;2022-08-04T14:11:52;36.40;48.90
21906;DHT22;11117;48.644;9.006;2022-08-04T14:14:22;36.50;49.80
21906;DHT22;11117;48.644;9.006;2022-08-04T14:17:08;36.80;51.20
21906;DHT22;11117;48.644;9.006;2022-08-04T14:22:38;36.80;49.60
21906;DHT22;11117;48.644;9.006;2022-08-04T14:27:53;36.60;48.30
21906;DHT22;11117;48.644;9.006;2022-08-04T14:30:34;36.60;48.90
21906;DHT22;11117;48.644;9.006;2022-08-04T14:33:09;36.50;49.40
21906;DHT22;11117;48.644;9.006;2022-08-04T14:35:36;36.60;49.40
21906;DHT22;11117;48.644;9.006;2022-08-04T14:38:10;36.20;49.50
21906;DHT22;11117;48.644;9.006;2022-08-04T14:40:38;36.00;49.40
21906;DHT22;11117;48.644;9.006;2022-08-04T14:43:04;36.10;50.90
21906;DHT22;11117;48.644;9.006;2022-08-04T14:45:37;36.00;50.80
21906;DHT22;11117;48.644;9.006;2022-08-04T14:48:08;35.90;51.70
21906;DHT22;11117;48.644;9.006;2022-08-04T14:50:38;35.80;51.70
21906;DHT22;11117;48.644;9.006;2022-08-04T14:53:06;35.70;51.10
21906;DHT22;11117;48.644;9.006;2022-08-04T14:55:32;35.60;51.70
21906;DHT22;11117;48.644;9.006;2022-08-04T14:57:58;35.50;51.70
21906;DHT22;11117;48.644;9.006;2022-08-04T15:00:30;35.30;51.80
21906;DHT22;11117;48.644;9.006;2022-08-04T15:03:01;35.30;52.00
21906;DHT22;11117;48.644;9.006;2022-08-04T15:05:28;35.30;52.30
21906;DHT22;11117;48.644;9.006;2022-08-04T15:07:54;35.20;52.00
21906;DHT22;11117;48.644;9.006;2022-08-04T15:10:20;35.10;51.80
21906;DHT22;11117;48.644;9.006;2022-08-04T15:12:46;34.90;51.50
21906;DHT22;11117;48.644;9.006;2022-08-04T15:15:12;34.80;51.40
21906;DHT22;11117;48.644;9.006;2022-08-04T15:17:39;34.80;52.20
21906;DHT22;11117;48.644;9.006;2022-08-04T15:20:05;34.90;52.00
21906;DHT22;11117;48.644;9.006;2022-08-04T15:22:31;34.90;51.90
21906;DHT22;11117;48.644;9.006;2022-08-04T15:24:56;34.90;51.30
21906;DHT22;11117;48.644;9.006;2022-08-04T15:27:29;35.00;51.90
21906;DHT22;11117;48.644;9.006;2022-08-04T15:30:00;35.00;51.60
21906;DHT22;11117;48.644;9.006;2022-08-04T15:32:28;35.10;51.20
21906;DHT22;11117;48.644;9.006;2022-08-04T15:35:04;35.00;50.60
21906;DHT22;11117;48.644;9.006;2022-08-04T15:46:02;35.40;51.30
21906;DHT22;11117;48.644;9.006;2022-08-04T15:48:28;35.50;51.70
21906;DHT22;11117;48.644;9.006;2022-08-04T15:53:26;35.60;51.90
21906;DHT22;11117;48.644;9.006;2022-08-04T15:55:53;35.60;51.60
21906;DHT22;11117;48.644;9.006;2022-08-04T15:58:19;35.70;52.00
21906;DHT22;11117;48.644;9.006;2022-08-04T16:16:46;35.70;51.60
21906;DHT22;11117;48.644;9.006;2022-08-04T16:19:25;35.70;51.70
21906;DHT22;11117;48.644;9.006;2022-08-04T16:21:55;35.70;52.60
21906;DHT22;11117;48.644;9.006;2022-08-04T16:27:00;35.80;50.80
21906;DHT22;11117;48.644;9.006;2022-08-04T16:29:36;35.80;51.30
21906;DHT22;11117;48.644;9.006;2022-08-04T16:34:32;35.70;52.50
21906;DHT22;11117;48.644;9.006;2022-08-04T16:37:00;35.70;52.90
21906;DHT22;11117;48.644;9.006;2022-08-04T16:39:26;35.70;52.30
21906;DHT22;11117;48.644;9.006;2022-08-04T16:41:52;35.60;52.80
21906;DHT22;11117;48.644;9.006;2022-08-04T16:44:35;35.50;52.40
21906;DHT22;11117;48.644;9.006;2022-08-04T16:47:02;35.30;52.70
21906;DHT22;11117;48.644;9.006;2022-08-04T16:49:29;35.30;52.20
21906;DHT22;11117;48.644;9.006;2022-08-04T16:52:04;35.30;53.00
21906;DHT22;11117;48.644;9.006;2022-08-04T16:54:31;35.20;53.10
21906;DHT22;11117;48.644;9.006;2022-08-04T16:56:58;35.20;52.90
21906;DHT22;11117;48.644;9.006;2022-08-04T16:59:24;35.20;52.90
21906;DHT22;11117;48.644;9.006;2022-08-04T17:01:51;35.10;52.50
21906;DHT22;11117;48.644;9.006;2022-08-04T17:04:17;35.00;52.60
21906;DHT22;11117;48.644;9.006;2022-08-04T17:07:01;35.00;53.30
21906;DHT22;11117;48.644;9.006;2022-08-04T17:09:27;34.90;53.00
21906;DHT22;11117;48.644;9.006;2022-08-04T17:11:53;34.80;53.00
21906;DHT22;11117;48.644;9.006;2022-08-04T17:14:28;34.80;53.20
21906;DHT22;11117;48.644;9.006;2022-08-04T17:16:57;34.70;53.50
21906;DHT22;11117;48.644;9.006;2022-08-04T17:19:23;34.70;53.40
21906;DHT22;11117;48.644;9.006;2022-08-04T17:21:49;34.60;53.80
21906;DHT22;11117;48.644;9.006;2022-08-04T17:24:15;34.50;54.10
21906;DHT22;11117;48.644;9.006;2022-08-04T17:26:41;34.50;54.30
21906;DHT22;11117;48.644;9.006;2022-08-04T17:29:07;34.40;54.20
21906;DHT22;11117;48.644;9.006;2022-08-04T17:31:35;34.40;54.50
21906;DHT22;11117;48.644;9.006;2022-08-04T17:34:10;34.30;54.60
21906;DHT22;11117;48.644;9.006;2022-08-04T17:36:37;34.20;55.10
21906;DHT22;11117;48.644;9.006;2022-08-04T17:39:24;34.30;55.40
21906;DHT22;11117;48.644;9.006;2022-08-04T17:41:56;34.50;55.70
21906;DHT22;11117;48.644;9.006;2022-08-04T17:44:36;34.70;55.40
21906;DHT22;11117;48.644;9.006;2022-08-04T17:47:17;35.10;55.00
21906;DHT22;11117;48.644;9.006;2022-08-04T17:49:46;35.60;54.50
21906;DHT22;11117;48.644;9.006;2022-08-04T17:52:21;36.20;53.60
21906;DHT22;11117;48.644;9.006;2022-08-04T17:54:57;37.20;52.50
21906;DHT22;11117;48.644;9.006;2022-08-04T17:57:23;38.30;51.50
21906;DHT22;11117;48.644;9.006;2022-08-04T17:59:54;39.30;50.80
21906;DHT22;11117;48.644;9.006;2022-08-04T18:02:27;40.00;49.70
21906;DHT22;11117;48.644;9.006;2022-08-04T18:04:53;40.70;49.10
21906;DHT22;11117;48.644;9.006;2022-08-04T18:07:23;41.10;48.40
21906;DHT22;11117;48.644;9.006;2022-08-04T18:09:58;41.60;48.20
21906;DHT22;11117;48.644;9.006;2022-08-04T18:12:25;41.80;47.60
21906;DHT22;11117;48.644;9.006;2022-08-04T18:14:53;41.90;47.10
21906;DHT22;11117;48.644;9.006;2022-08-04T18:17:41;41.80;47.20
21906;DHT22;11117;48.644;9.006;2022-08-04T18:20:08;41.60;47.50
21906;DHT22;11117;48.644;9.006;2022-08-04T18:22:35;41.40;47.70
21906;DHT22;11117;48.644;9.006;2022-08-04T18:25:01;41.10;47.70
21906;DHT22;11117;48.644;9.006;2022-08-04T18:27:28;40.70;48.20
21906;DHT22;11117;48.644;9.006;2022-08-04T18:29:55;39.80;49.00
21906;DHT22;11117;48.644;9.006;2022-08-04T18:32:20;38.80;50.60
21906;DHT22;11117;48.644;9.006;2022-08-04T18:34:46;37.90;51.00
21906;DHT22;11117;48.644;9.006;2022-08-04T18:37:12;37.10;51.90
21906;DHT22;11117;48.644;9.006;2022-08-04T18:39:37;36.40;52.80
21906;DHT22;11117;48.644;9.006;2022-08-04T18:42:03;35.70;53.50
21906;DHT22;11117;48.644;9.006;2022-08-04T18:44:30;35.30;54.30
21906;DHT22;11117;48.644;9.006;2022-08-04T18:46:56;34.80;54.80
21906;DHT22;11117;48.644;9.006;2022-08-04T18:49:21;34.30;55.80
21906;DHT22;11117;48.644;9.006;2022-08-04T18:51:47;33.90;56.60
21906;DHT22;11117;48.644;9.006;2022-08-04T18:54:12;33.60;56.60
21906;DHT22;11117;48.644;9.006;2022-08-04T18:56:38;33.10;57.60
21906;DHT22;11117;48.644;9.006;2022-08-04T18:59:05;32.80;57.90
21906;DHT22;11117;48.644;9.006;2022-08-04T19:01:31;32.50;58.40
21906;DHT22;11117;48.644;9.006;2022-08-04T19:03:57;32.20;58.90
21906;DHT22;11117;48.644;9.006;2022-08-04T19:06:22;32.00;59.40
21906;DHT22;11117;48.644;9.006;2022-08-04T19:08:48;31.80;59.70
21906;DHT22;11117;48.644;9.006;2022-08-04T19:11:13;31.50;59.90
21906;DHT22;11117;48.644;9.006;2022-08-04T19:13:39;31.40;60.60
21906;DHT22;11117;48.644;9.006;2022-08-04T19:16:05;31.20;60.60
21906;DHT22;11117;48.644;9.006;2022-08-04T19:18:31;31.00;60.90
21906;DHT22;11117;48.644;9.006;2022-08-04T19:20:57;30.90;61.40
21906;DHT22;11117;48.644;9.006;2022-08-04T19:23:23;30.70;62.70
21906;DHT22;11117;48.644;9.006;2022-08-04T19:25:49;30.40;65.10
21906;DHT22;11117;48.644;9.006;2022-08-04T19:28:14;30.10;66.10
21906;DHT22;11117;48.644;9.006;2022-08-04T19:30:40;29.80;67.40
21906;DHT22;11117;48.644;9.006;2022-08-04T19:33:06;29.60;68.30
21906;DHT22;11117;48.644;9.006;2022-08-04T19:35:32;29.40;69.40
21906;DHT22;11117;48.644;9.006;2022-08-04T19:37:57;29.20;71.20
21906;DHT22;11117;48.644;9.006;2022-08-04T19:40:23;29.10;72.20
21906;DHT22;11117;48.644;9.006;2022-08-04T19:42:49;28.90;73.30
21906;DHT22;11117;48.644;9.006;2022-08-04T19:45:15;28.80;73.50
21906;DHT22;11117;48.644;9.006;2022-08-04T19:47:40;28.60;74.00
21906;DHT22;11117;48.644;9.006;2022-08-04T19:50:06;28.50;74.60
21906;DHT22;11117;48.644;9.006;2022-08-04T19:52:35;28.30;74.90
21906;DHT22;11117;48.644;9.006;2022-08-04T19:55:04;28.10;76.20
21906;DHT22;11117;48.644;9.006;2022-08-04T19:57:30;27.90;76.40
21906;DHT22;11117;48.644;9.006;2022-08-04T19:59:56;27.70;76.20
21906;DHT22;11117;48.644;9.006;2022-08-04T20:02:21;27.60;77.00
21906;DHT22;11117;48.644;9.006;2022-08-04T20:04:47;27.50;77.70
21906;DHT22;11117;48.644;9.006;2022-08-04T20:07:24;27.40;78.10
21906;DHT22;11117;48.644;9.006;2022-08-04T20:09:50;27.30;78.40
21906;DHT22;11117;48.644;9.006;2022-08-04T20:12:18;27.20;78.80
21906;DHT22;11117;48.644;9.006;2022-08-04T20:14:44;27.10;79.00
21906;DHT22;11117;48.644;9.006;2022-08-04T20:17:12;27.10;79.00
21906;DHT22;11117;48.644;9.006;2022-08-04T20:19:38;27.00;79.70